Аэропорт: Алматы. Алма-Ата

ICAO: UAAA

METAR:
2021-07-28 13:00:00
UAAA 281300Z 02004MPS 9999 SCT050CB BKN100 30/07 Q1004 R05R/CLRD65 NOSIG
METAR:
2021-07-28 11:00:00
TAF UAAA 281100Z 2812/2912 18003MPS 9999 SCT050CB SCT100 TX33/2909Z TN20/2901Z TEMPO 2812/2815 01003G10MPS TEMPO 2815/2902 23003MPS BECMG 2902/2903 32003MPS TEMPO 2902/2912 01003G10MPS